createdAt,value
2023-03-23T15:57:54.235Z,8.80
2023-03-23T16:00:24.709Z,10.50
2023-03-23T16:02:56.496Z,10.40
2023-03-23T16:05:25.022Z,9.50
2023-03-23T16:07:53.330Z,10.60
2023-03-23T16:10:22.856Z,15.40
2023-03-23T16:12:52.594Z,11.50
2023-03-23T16:15:21.251Z,14.70
2023-03-23T16:17:49.502Z,12.30
2023-03-23T16:20:19.986Z,12.50
2023-03-23T16:22:48.507Z,13.30
2023-03-23T16:25:18.819Z,10.10
2023-03-23T16:27:52.455Z,9.70
2023-03-23T16:30:23.560Z,11.60
2023-03-23T16:32:52.285Z,18.10
2023-03-23T16:35:21.423Z,11.80
2023-03-23T16:38:07.798Z,9.30
2023-03-23T16:40:37.763Z,14.70
2023-03-23T16:43:09.143Z,14.50
2023-03-23T16:45:41.615Z,16.10
2023-03-23T16:48:12.749Z,11.40
2023-03-23T16:50:45.166Z,10.20
2023-03-23T16:53:14.169Z,10.60
2023-03-23T16:55:44.143Z,15.80
2023-03-23T16:58:17.501Z,8.90
2023-03-23T17:00:49.160Z,9.10
2023-03-23T17:10:28.600Z,21.90
2023-03-23T17:12:58.201Z,25.10
2023-03-23T17:15:26.491Z,31.10
2023-03-23T17:17:55.610Z,42.60
2023-03-23T17:20:23.954Z,53.70
2023-03-23T17:22:51.954Z,43.20
2023-03-23T17:25:20.026Z,28.80
2023-03-23T17:27:48.500Z,21.90
2023-03-23T17:30:16.496Z,22.30
2023-03-23T17:32:49.954Z,22.60
2023-03-23T17:35:18.504Z,23.90
2023-03-23T17:37:48.933Z,23.30
2023-03-23T17:40:18.131Z,18.00
2023-03-23T17:42:46.234Z,17.10
2023-03-23T17:45:15.447Z,19.40
2023-03-23T17:47:44.182Z,12.80
2023-03-23T17:50:18.595Z,17.50
2023-03-23T17:52:47.316Z,20.50
2023-03-23T17:55:16.336Z,15.50
2023-03-23T17:57:45.940Z,23.10
2023-03-23T18:00:15.647Z,25.00
2023-03-23T18:02:46.141Z,44.40
2023-03-23T18:05:15.996Z,34.40
2023-03-23T18:07:44.656Z,24.80
2023-03-23T18:10:14.508Z,32.60
2023-03-23T18:12:43.834Z,25.90
2023-03-23T18:15:12.364Z,22.10
2023-03-23T18:17:40.778Z,18.70
2023-03-23T18:20:09.179Z,32.40
2023-03-23T18:22:37.211Z,38.40
2023-03-23T18:25:06.002Z,47.90
2023-03-23T18:27:34.891Z,40.90
2023-03-23T18:30:03.838Z,42.60
2023-03-23T18:32:36.129Z,38.20
2023-03-23T18:35:05.408Z,45.70
2023-03-23T18:37:34.396Z,74.60
2023-03-23T18:40:02.801Z,51.70
2023-03-23T18:42:31.825Z,47.50
2023-03-23T18:45:00.262Z,38.40
2023-03-23T18:47:28.517Z,32.50
2023-03-23T18:49:57.263Z,31.70
2023-03-23T18:52:26.622Z,36.60
2023-03-23T18:54:55.243Z,33.90
2023-03-23T18:57:23.749Z,34.70
2023-03-23T18:59:52.230Z,39.60
2023-03-23T19:02:20.608Z,38.50
2023-03-23T19:04:49.570Z,33.70
2023-03-23T19:07:18.252Z,34.80
2023-03-23T19:09:47.470Z,57.10
2023-03-23T19:12:15.999Z,74.50
2023-03-23T19:14:44.993Z,67.50
2023-03-23T19:17:13.290Z,68.60
2023-03-23T19:19:43.736Z,59.10
2023-03-23T19:22:13.100Z,43.00
2023-03-23T19:24:41.348Z,35.60
2023-03-23T19:27:11.041Z,34.40
2023-03-23T19:29:39.298Z,31.00
2023-03-23T19:32:10.045Z,37.00
2023-03-23T19:34:39.572Z,34.70
2023-03-23T19:37:11.022Z,27.20
2023-03-23T19:39:41.823Z,30.50
2023-03-23T19:42:11.878Z,30.10
2023-03-23T19:44:41.422Z,34.20
2023-03-23T19:47:09.961Z,35.50
2023-03-23T19:49:45.687Z,34.70
2023-03-23T19:52:16.192Z,44.50
2023-03-23T19:57:14.674Z,43.10
2023-03-23T19:59:44.288Z,48.40
2023-03-23T20:02:12.957Z,46.80
2023-03-23T20:04:43.520Z,36.90
2023-03-23T20:07:12.622Z,31.60
2023-03-23T20:09:41.088Z,30.30
2023-03-23T20:12:12.900Z,29.60
2023-03-23T20:14:45.055Z,39.70
2023-03-23T20:17:14.846Z,42.80
2023-03-23T20:19:46.096Z,35.20
2023-03-23T20:29:57.299Z,39.80
2023-03-23T20:32:26.561Z,40.40
2023-03-23T20:34:57.094Z,36.50
2023-03-23T20:37:26.004Z,43.10
2023-03-23T20:39:57.882Z,38.80
2023-03-23T20:42:26.160Z,47.90
2023-03-23T20:44:54.422Z,36.70
2023-03-23T20:47:23.105Z,50.90
2023-03-23T20:49:53.939Z,63.90
2023-03-23T20:52:23.603Z,59.40
2023-03-23T20:54:53.798Z,45.30
2023-03-23T20:57:22.391Z,43.60
2023-03-23T20:59:53.404Z,45.70
2023-03-23T21:02:22.039Z,47.40
2023-03-23T21:04:53.055Z,41.60
2023-03-23T21:07:23.336Z,48.00
2023-03-23T21:09:52.308Z,44.30
2023-03-23T21:12:23.261Z,42.60
2023-03-23T21:14:51.665Z,43.80
2023-03-23T21:17:19.954Z,50.50
2023-03-23T21:19:48.840Z,47.30
2023-03-23T21:22:18.976Z,42.30
2023-03-23T21:24:50.457Z,47.30
2023-03-23T21:27:21.919Z,47.10
2023-03-23T21:29:51.164Z,53.80
2023-03-23T21:32:19.322Z,46.70
2023-03-23T21:34:51.525Z,43.30
2023-03-23T21:37:19.963Z,42.00
2023-03-23T21:39:51.223Z,40.00
2023-03-23T21:42:19.603Z,50.30
2023-03-23T21:44:48.732Z,44.50
2023-03-23T21:47:18.097Z,42.70
2023-03-23T21:49:47.476Z,46.40
2023-03-23T21:52:15.517Z,44.40
2023-03-23T21:54:43.675Z,50.10
2023-03-23T21:57:12.468Z,43.80
2023-03-23T21:59:42.923Z,54.40
2023-03-23T22:02:12.666Z,50.50
2023-03-23T22:04:41.442Z,49.40
2023-03-23T22:07:15.085Z,45.90
2023-03-23T22:09:45.421Z,50.90
2023-03-23T22:12:14.414Z,47.50
2023-03-23T22:14:42.590Z,52.50
2023-03-23T22:17:11.212Z,48.40
2023-03-23T22:19:39.459Z,52.00
2023-03-23T22:22:11.737Z,52.80
2023-03-23T22:24:40.540Z,46.40
2023-03-23T22:27:08.713Z,49.70
2023-03-23T22:29:37.825Z,56.70
2023-03-23T22:32:05.995Z,58.00
2023-03-23T22:34:34.074Z,51.20
2023-03-23T22:37:05.670Z,54.20
2023-03-23T22:39:34.675Z,52.50
2023-03-23T22:42:09.749Z,47.60
2023-03-23T22:44:39.862Z,52.00
2023-03-23T22:47:08.070Z,48.10
2023-03-23T22:49:39.111Z,52.80
2023-03-23T22:52:07.596Z,56.30
2023-03-23T22:54:39.473Z,57.60
2023-03-23T22:57:08.115Z,45.00
2023-03-23T22:59:36.524Z,61.10
2023-03-23T23:02:04.630Z,51.80
2023-03-23T23:04:33.632Z,55.10
2023-03-23T23:07:12.624Z,51.10
2023-03-23T23:09:55.356Z,53.00
2023-03-23T23:12:24.356Z,56.30
2023-03-23T23:14:58.628Z,53.10
2023-03-23T23:17:27.093Z,52.90
2023-03-23T23:19:55.274Z,54.10
2023-03-23T23:22:23.846Z,52.10
2023-03-23T23:24:52.027Z,50.00
2023-03-23T23:27:20.617Z,43.50
2023-03-23T23:29:49.299Z,50.60
2023-03-23T23:32:17.717Z,45.30
2023-03-23T23:34:46.881Z,48.00
2023-03-23T23:37:15.506Z,48.20
2023-03-23T23:39:43.652Z,48.60
2023-03-23T23:42:13.145Z,47.60
2023-03-23T23:44:43.331Z,48.70
2023-03-23T23:47:11.591Z,46.20
2023-03-23T23:49:40.347Z,47.90
2023-03-23T23:52:08.891Z,40.80
2023-03-23T23:54:42.603Z,46.40
2023-03-23T23:57:10.842Z,41.20
2023-03-23T23:59:39.087Z,46.40
